Time;durP1;ratioP1;P1;durP2;ratioP2;P2;SDS_P1;SDS_P2;PMS_P1;PMS_P2;Temp;Humidity;BMP_temperature;BMP_pressure;BME280_temperature;BME280_humidity;BME280_pressure;Samples;Min_cycle;Max_cycle;Signal;HPM_P1;HPM_P2
2022/03/17 00:01:17;;;;;;;107.47;67.67;;;;;;;;;;5012949;28;20696;-35
2022/03/17 00:03:43;;;;;;;105.50;67.40;;;;;;;;;;5008967;28;20168;-34
2022/03/17 00:06:11;;;;;;;112.47;69.57;;;;;;;;;;5016076;28;20176;-35
2022/03/17 00:08:38;;;;;;;114.40;68.53;;;;;;;;;;5015885;28;20211;-35
2022/03/17 00:11:04;;;;;;;114.60;72.13;;;;;;;;;;5013060;28;20199;-34
2022/03/17 00:13:30;;;;;;;104.40;66.37;;;;;;;;;;5017333;28;20310;-35
2022/03/17 00:15:57;;;;;;;102.50;67.07;;;;;;;;;;5013633;28;21798;-35
2022/03/17 00:18:23;;;;;;;102.43;65.93;;;;;;;;;;5013906;28;20460;-35
2022/03/17 00:20:49;;;;;;;106.23;66.43;;;;;;;;;;5015499;28;20504;-35
2022/03/17 00:23:15;;;;;;;98.63;66.03;;;;;;;;;;5013392;28;20210;-35
2022/03/17 00:25:41;;;;;;;101.77;65.33;;;;;;;;;;5012267;28;20307;-35
2022/03/17 00:28:08;;;;;;;103.10;65.57;;;;;;;;;;5013172;28;20238;-35
2022/03/17 00:30:34;;;;;;;100.33;65.87;;;;;;;;;;5017490;28;20624;-35
2022/03/17 00:33:00;;;;;;;99.50;65.70;;;;;;;;;;5016202;28;20679;-35
2022/03/17 00:35:35;;;;;;;102.30;66.60;;;;;;;;;;5011607;28;20212;-35
2022/03/17 00:38:02;;;;;;;101.60;63.37;;;;;;;;;;5013303;28;20191;-35
2022/03/17 00:40:28;;;;;;;103.37;66.63;;;;;;;;;;5017731;28;21225;-35
2022/03/17 00:42:55;;;;;;;104.03;67.43;;;;;;;;;;5013806;28;20183;-35
2022/03/17 00:45:22;;;;;;;108.80;65.00;;;;;;;;;;5011972;28;20508;-35
2022/03/17 00:47:48;;;;;;;102.80;65.17;;;;;;;;;;5012849;28;20714;-35
2022/03/17 00:50:14;;;;;;;99.17;65.13;;;;;;;;;;5011101;28;20692;-35
2022/03/17 00:52:40;;;;;;;99.77;65.87;;;;;;;;;;5008578;28;20200;-35
2022/03/17 00:55:07;;;;;;;97.13;64.53;;;;;;;;;;5012844;28;20676;-35
2022/03/17 00:57:34;;;;;;;93.80;61.20;;;;;;;;;;5006392;28;20234;-35
2022/03/17 01:00:00;;;;;;;89.97;60.30;;;;;;;;;;5010419;28;20180;-35
2022/03/17 01:02:26;;;;;;;95.33;62.97;;;;;;;;;;5016613;28;20180;-35
2022/03/17 01:04:52;;;;;;;100.77;63.27;;;;;;;;;;5010981;28;20578;-35
2022/03/17 01:07:18;;;;;;;99.03;62.27;;;;;;;;;;5010748;28;20654;-35
2022/03/17 01:09:44;;;;;;;97.70;63.17;;;;;;;;;;5011565;28;20959;-35
2022/03/17 01:12:11;;;;;;;89.00;60.60;;;;;;;;;;5011149;28;20745;-35
2022/03/17 01:14:37;;;;;;;97.90;63.57;;;;;;;;;;5009438;28;20593;-35
2022/03/17 01:17:03;;;;;;;93.43;61.03;;;;;;;;;;5010585;28;20513;-35
2022/03/17 01:19:29;;;;;;;94.63;62.00;;;;;;;;;;5010156;28;20588;-35
2022/03/17 01:21:55;;;;;;;97.03;63.77;;;;;;;;;;5016092;28;20188;-35
2022/03/17 01:24:21;;;;;;;92.50;61.47;;;;;;;;;;5009730;28;20188;-35
2022/03/17 01:26:47;;;;;;;98.33;63.70;;;;;;;;;;5006302;28;20176;-35
2022/03/17 01:29:13;;;;;;;96.67;64.40;;;;;;;;;;5010604;28;20180;-35
2022/03/17 01:31:39;;;;;;;99.20;64.07;;;;;;;;;;5011698;28;20326;-35
2022/03/17 01:34:06;;;;;;;101.17;65.57;;;;;;;;;;5014058;28;20396;-34
2022/03/17 01:36:32;;;;;;;103.47;65.47;;;;;;;;;;5010127;28;20685;-34
2022/03/17 01:38:58;;;;;;;103.03;66.47;;;;;;;;;;5013807;28;20233;-34
2022/03/17 01:41:24;;;;;;;101.83;65.57;;;;;;;;;;5009825;28;20184;-34
2022/03/17 01:43:50;;;;;;;104.00;67.23;;;;;;;;;;5009418;28;20853;-34
2022/03/17 01:46:18;;;;;;;102.93;67.07;;;;;;;;;;5013455;28;20592;-34
2022/03/17 01:48:44;;;;;;;99.67;63.90;;;;;;;;;;5010634;28;20814;-34
2022/03/17 01:51:11;;;;;;;98.40;64.60;;;;;;;;;;5008802;28;20656;-34
2022/03/17 01:53:37;;;;;;;103.67;65.77;;;;;;;;;;5008324;28;20172;-34
2022/03/17 01:56:04;;;;;;;109.37;70.37;;;;;;;;;;5013526;28;20176;-34
2022/03/17 01:58:30;;;;;;;101.67;65.67;;;;;;;;;;5007904;28;20254;-34
2022/03/17 02:00:57;;;;;;;102.90;67.10;;;;;;;;;;5009621;28;20176;-34
2022/03/17 02:03:27;;;;;;;103.77;65.53;;;;;;;;;;5013436;28;20621;-34
2022/03/17 02:05:53;;;;;;;109.57;67.90;;;;;;;;;;5009009;28;20568;-34
2022/03/17 02:08:19;;;;;;;104.60;68.53;;;;;;;;;;5007871;28;20204;-34
2022/03/17 02:13:30;;;;;;;109.73;68.60;;;;;;;;;;5007128;28;20838;-34
2022/03/17 02:15:56;;;;;;;112.10;70.10;;;;;;;;;;5011071;28;20178;-34
2022/03/17 02:18:23;;;;;;;113.80;69.27;;;;;;;;;;5006880;28;20557;-34
2022/03/17 02:20:50;;;;;;;111.93;71.53;;;;;;;;;;5009360;28;20667;-34
2022/03/17 02:26:02;;;;;;;114.73;70.47;;;;;;;;;;5007612;28;20374;-34
2022/03/17 02:28:29;;;;;;;110.93;70.47;;;;;;;;;;5005476;28;20181;-34
2022/03/17 02:30:56;;;;;;;118.70;72.07;;;;;;;;;;5011419;28;20333;-34
2022/03/17 02:33:22;;;;;;;116.03;69.80;;;;;;;;;;5007696;28;20469;-34
2022/03/17 02:35:51;;;;;;;117.20;73.83;;;;;;;;;;5010867;28;20330;-35
2022/03/17 02:38:17;;;;;;;106.10;69.30;;;;;;;;;;5006585;28;20168;-35
2022/03/17 02:40:45;;;;;;;113.70;71.73;;;;;;;;;;5007774;28;20437;-34
2022/03/17 02:43:14;;;;;;;108.70;70.07;;;;;;;;;;5006264;28;22071;-34
2022/03/17 02:45:40;;;;;;;114.40;70.67;;;;;;;;;;5010185;28;20708;-34
2022/03/17 02:48:07;;;;;;;114.17;72.57;;;;;;;;;;5005016;28;20592;-35
2022/03/17 02:50:34;;;;;;;118.47;75.30;;;;;;;;;;5007626;28;20758;-34
2022/03/17 02:53:05;;;;;;;116.70;72.77;;;;;;;;;;5012361;28;20612;-34
2022/03/17 02:55:32;;;;;;;116.23;74.37;;;;;;;;;;5008261;28;20177;-34
2022/03/17 02:57:58;;;;;;;118.30;75.57;;;;;;;;;;5007193;28;20214;-34
2022/03/17 03:00:24;;;;;;;110.43;73.20;;;;;;;;;;5011371;28;20390;-34
2022/03/17 03:02:50;;;;;;;113.63;73.67;;;;;;;;;;5013151;28;20220;-34
2022/03/17 03:05:16;;;;;;;125.97;78.27;;;;;;;;;;5009510;28;20211;-34
2022/03/17 03:07:42;;;;;;;116.80;74.40;;;;;;;;;;5010648;28;20276;-34
2022/03/17 03:10:08;;;;;;;117.90;75.57;;;;;;;;;;5015786;28;20183;-34
2022/03/17 03:12:35;;;;;;;126.53;78.63;;;;;;;;;;5013816;28;20581;-34
2022/03/17 03:15:01;;;;;;;130.83;80.63;;;;;;;;;;5008367;28;20379;-34
2022/03/17 03:17:27;;;;;;;129.13;80.53;;;;;;;;;;5009240;28;20180;-34
2022/03/17 03:19:53;;;;;;;119.60;75.67;;;;;;;;;;5009695;28;20682;-35
2022/03/17 03:22:20;;;;;;;119.57;76.93;;;;;;;;;;5007707;28;20290;-34
2022/03/17 03:24:46;;;;;;;132.60;83.53;;;;;;;;;;5008187;28;20532;-34
2022/03/17 03:27:12;;;;;;;123.80;79.03;;;;;;;;;;5009715;28;20195;-35
2022/03/17 03:29:38;;;;;;;129.00;83.63;;;;;;;;;;5009694;28;20192;-34
2022/03/17 03:32:05;;;;;;;130.07;81.93;;;;;;;;;;5008010;28;20312;-34
2022/03/17 03:34:32;;;;;;;130.83;80.70;;;;;;;;;;5005827;28;20469;-34
2022/03/17 03:39:43;;;;;;;135.20;82.60;;;;;;;;;;5007274;28;20358;-34
2022/03/17 03:42:10;;;;;;;130.60;80.00;;;;;;;;;;5006210;28;20294;-34
2022/03/17 03:44:39;;;;;;;125.03;81.23;;;;;;;;;;5008069;28;20184;-34
2022/03/17 03:47:06;;;;;;;131.53;83.30;;;;;;;;;;5008628;28;20181;-34
2022/03/17 03:49:33;;;;;;;131.83;83.13;;;;;;;;;;5008105;28;20361;-35
2022/03/17 03:51:59;;;;;;;130.17;80.30;;;;;;;;;;5008284;28;20199;-34
2022/03/17 03:54:25;;;;;;;127.53;80.83;;;;;;;;;;5010415;28;20932;-35
2022/03/17 03:56:52;;;;;;;131.10;81.90;;;;;;;;;;5010807;28;20484;-34
2022/03/17 03:59:23;;;;;;;138.00;84.90;;;;;;;;;;5010354;28;20181;-34
2022/03/17 04:01:50;;;;;;;135.37;84.43;;;;;;;;;;5005115;28;20281;-34
2022/03/17 04:04:19;;;;;;;124.23;80.40;;;;;;;;;;5008441;28;20188;-34
2022/03/17 04:06:53;;;;;;;132.57;82.07;;;;;;;;;;5012914;28;20360;-35
2022/03/17 04:09:20;;;;;;;127.97;83.43;;;;;;;;;;5010303;28;20188;-34
2022/03/17 04:11:46;;;;;;;136.37;85.57;;;;;;;;;;5005256;28;20449;-34
2022/03/17 04:14:13;;;;;;;133.77;84.57;;;;;;;;;;5007383;28;20168;-34
2022/03/17 04:16:39;;;;;;;141.27;87.03;;;;;;;;;;5012280;28;20178;-34
2022/03/17 04:19:06;;;;;;;142.10;87.00;;;;;;;;;;5011696;28;20212;-34
2022/03/17 04:21:32;;;;;;;134.57;85.37;;;;;;;;;;5010013;28;20652;-35
2022/03/17 04:23:59;;;;;;;129.50;84.80;;;;;;;;;;5012538;28;20652;-34
2022/03/17 04:26:26;;;;;;;137.10;85.47;;;;;;;;;;5012864;28;20202;-36
2022/03/17 04:28:52;;;;;;;135.50;85.03;;;;;;;;;;5010444;28;20267;-36
2022/03/17 04:31:18;;;;;;;135.00;86.80;;;;;;;;;;5009381;28;20204;-36
2022/03/17 04:33:44;;;;;;;141.87;88.23;;;;;;;;;;5013649;28;20435;-35
2022/03/17 04:36:11;;;;;;;132.23;84.40;;;;;;;;;;5012804;28;20428;-36
2022/03/17 04:38:38;;;;;;;136.03;87.33;;;;;;;;;;5011809;28;20249;-36
2022/03/17 04:41:04;;;;;;;151.40;91.13;;;;;;;;;;5009785;28;20184;-35
2022/03/17 04:43:30;;;;;;;153.07;92.03;;;;;;;;;;5007157;28;20181;-36
2022/03/17 04:45:56;;;;;;;147.73;93.57;;;;;;;;;;5014235;28;20208;-36
2022/03/17 04:48:22;;;;;;;142.47;89.10;;;;;;;;;;5012269;28;20180;-36
2022/03/17 04:50:48;;;;;;;143.33;91.43;;;;;;;;;;5009210;28;20311;-36
2022/03/17 04:53:31;;;;;;;145.23;90.47;;;;;;;;;;5009915;28;20719;-36
2022/03/17 04:55:58;;;;;;;145.20;88.23;;;;;;;;;;5010896;28;20271;-36
2022/03/17 04:58:24;;;;;;;142.93;88.00;;;;;;;;;;5009175;28;20180;-34
2022/03/17 05:00:53;;;;;;;140.60;89.27;;;;;;;;;;5013116;28;20203;-34
2022/03/17 05:03:20;;;;;;;143.17;88.67;;;;;;;;;;5016452;28;20800;-34
2022/03/17 05:05:46;;;;;;;146.30;90.77;;;;;;;;;;5010460;28;20279;-36
2022/03/17 05:08:12;;;;;;;145.60;89.77;;;;;;;;;;5012177;28;20172;-36
2022/03/17 05:10:39;;;;;;;151.23;92.77;;;;;;;;;;5013022;28;20196;-36
2022/03/17 05:13:05;;;;;;;151.63;92.93;;;;;;;;;;5014756;28;20270;-36
2022/03/17 05:15:31;;;;;;;149.60;90.50;;;;;;;;;;5012617;28;20512;-36
2022/03/17 05:17:57;;;;;;;147.57;93.87;;;;;;;;;;5009669;28;20581;-36
2022/03/17 05:20:24;;;;;;;159.27;97.07;;;;;;;;;;5008898;28;20476;-36
2022/03/17 05:22:50;;;;;;;162.57;100.47;;;;;;;;;;5012017;28;20223;-36
2022/03/17 05:25:16;;;;;;;149.63;93.90;;;;;;;;;;5006302;28;20730;-36
2022/03/17 05:27:43;;;;;;;162.63;97.70;;;;;;;;;;5009557;28;20180;-36
2022/03/17 05:30:10;;;;;;;154.33;95.43;;;;;;;;;;5012994;28;20183;-36
2022/03/17 05:32:36;;;;;;;163.43;100.53;;;;;;;;;;5013649;28;20625;-36
2022/03/17 05:35:02;;;;;;;159.83;99.27;;;;;;;;;;5008138;28;20317;-36
2022/03/17 05:37:28;;;;;;;155.53;94.57;;;;;;;;;;5007054;28;20208;-36
2022/03/17 05:39:54;;;;;;;161.20;99.17;;;;;;;;;;5011665;28;20370;-36
2022/03/17 05:42:20;;;;;;;154.33;96.83;;;;;;;;;;5009379;28;20691;-36
2022/03/17 05:44:47;;;;;;;160.63;96.47;;;;;;;;;;5006148;28;20215;-36
2022/03/17 05:47:13;;;;;;;165.13;99.40;;;;;;;;;;5012652;28;20176;-36
2022/03/17 05:49:39;;;;;;;166.60;100.57;;;;;;;;;;5010711;28;20624;-36
2022/03/17 05:52:06;;;;;;;155.43;97.07;;;;;;;;;;5009446;28;20659;-36
2022/03/17 05:54:33;;;;;;;160.73;98.43;;;;;;;;;;5009537;28;21042;-35
2022/03/17 05:56:59;;;;;;;153.87;96.77;;;;;;;;;;5011650;28;20282;-35
2022/03/17 05:59:25;;;;;;;159.97;99.83;;;;;;;;;;5012455;28;20589;-36
2022/03/17 06:01:51;;;;;;;154.03;98.50;;;;;;;;;;5002742;28;20184;-36
2022/03/17 06:04:17;;;;;;;165.43;100.30;;;;;;;;;;5005116;28;20692;-36
2022/03/17 06:06:43;;;;;;;163.93;101.57;;;;;;;;;;5008690;28;20720;-36
2022/03/17 06:09:09;;;;;;;158.73;98.50;;;;;;;;;;5008892;28;20579;-36
2022/03/17 06:11:35;;;;;;;155.47;96.83;;;;;;;;;;5004182;28;20269;-36
2022/03/17 06:14:01;;;;;;;167.80;99.07;;;;;;;;;;5006146;28;20566;-36
2022/03/17 06:16:28;;;;;;;157.57;94.87;;;;;;;;;;5012043;28;20180;-36
2022/03/17 06:18:54;;;;;;;151.70;95.40;;;;;;;;;;5004713;28;20180;-36
2022/03/17 06:21:20;;;;;;;164.57;98.73;;;;;;;;;;5005248;28;20865;-36
2022/03/17 06:23:46;;;;;;;156.50;93.67;;;;;;;;;;5007988;28;20211;-36
2022/03/17 06:26:12;;;;;;;162.00;96.53;;;;;;;;;;5003941;28;20211;-36
2022/03/17 06:28:38;;;;;;;153.60;95.73;;;;;;;;;;5003537;28;20211;-36
2022/03/17 06:31:04;;;;;;;150.77;91.17;;;;;;;;;;5008377;28;20183;-36
2022/03/17 06:33:30;;;;;;;153.23;92.27;;;;;;;;;;5013817;28;20627;-36
2022/03/17 06:35:56;;;;;;;138.73;89.17;;;;;;;;;;5002242;28;20569;-36
2022/03/17 06:38:22;;;;;;;147.97;90.93;;;;;;;;;;5005800;28;20180;-36
2022/03/17 06:40:48;;;;;;;142.80;87.23;;;;;;;;;;5004868;28;20179;-36
2022/03/17 06:43:14;;;;;;;135.43;84.47;;;;;;;;;;5008816;28;21021;-36
2022/03/17 06:45:41;;;;;;;142.37;90.00;;;;;;;;;;5008327;28;21013;-36
2022/03/17 06:48:07;;;;;;;142.90;89.20;;;;;;;;;;5009247;28;20246;-34
2022/03/17 06:50:33;;;;;;;133.33;82.73;;;;;;;;;;5004526;28;20604;-34
2022/03/17 06:53:00;;;;;;;137.50;84.27;;;;;;;;;;5006904;28;20655;-34
2022/03/17 06:55:26;;;;;;;139.97;86.73;;;;;;;;;;5006807;28;20171;-34
2022/03/17 06:57:52;;;;;;;141.97;87.60;;;;;;;;;;5010304;28;20199;-34
2022/03/17 07:00:19;;;;;;;140.27;87.83;;;;;;;;;;5011131;28;20168;-36
2022/03/17 07:02:45;;;;;;;143.67;85.57;;;;;;;;;;5004799;28;20938;-34
2022/03/17 07:05:11;;;;;;;140.33;84.80;;;;;;;;;;5008855;28;20481;-36
2022/03/17 07:07:38;;;;;;;143.73;86.87;;;;;;;;;;5004431;28;20200;-34
2022/03/17 07:10:08;;;;;;;147.57;88.93;;;;;;;;;;5006570;28;20520;-34
2022/03/17 07:12:37;;;;;;;138.37;86.07;;;;;;;;;;5007052;28;20926;-34
2022/03/17 07:15:04;;;;;;;128.97;80.13;;;;;;;;;;5007499;28;20474;-34
2022/03/17 07:17:40;;;;;;;135.73;83.43;;;;;;;;;;5007635;28;20726;-34
2022/03/17 07:20:18;;;;;;;135.67;83.63;;;;;;;;;;5011458;28;20279;-34
2022/03/17 07:22:47;;;;;;;124.43;77.93;;;;;;;;;;5008213;28;20519;-34
2022/03/17 07:25:13;;;;;;;141.00;84.13;;;;;;;;;;5004066;28;20469;-34
2022/03/17 07:27:44;;;;;;;124.47;76.00;;;;;;;;;;5003362;28;20709;-37
2022/03/17 07:30:11;;;;;;;125.90;75.30;;;;;;;;;;5004170;28;20637;-37
2022/03/17 07:32:38;;;;;;;124.13;80.40;;;;;;;;;;5008165;28;20198;-36
2022/03/17 07:35:05;;;;;;;143.37;83.17;;;;;;;;;;5006160;28;20172;-36
2022/03/17 07:37:31;;;;;;;121.87;76.13;;;;;;;;;;4997801;28;20179;-36
2022/03/17 07:39:57;;;;;;;124.20;77.63;;;;;;;;;;5000963;28;20702;-36
2022/03/17 07:42:23;;;;;;;125.30;78.13;;;;;;;;;;5001116;28;20769;-36
2022/03/17 07:44:49;;;;;;;126.53;80.30;;;;;;;;;;5004839;28;20176;-37
2022/03/17 07:47:15;;;;;;;133.47;83.10;;;;;;;;;;5009401;28;20176;-36
2022/03/17 07:49:42;;;;;;;129.50;81.97;;;;;;;;;;5005235;28;20917;-36
2022/03/17 07:52:08;;;;;;;132.23;79.43;;;;;;;;;;5003061;28;20235;-36
2022/03/17 07:54:35;;;;;;;124.37;81.33;;;;;;;;;;5011410;28;20168;-36
2022/03/17 07:57:02;;;;;;;119.43;76.37;;;;;;;;;;5014285;28;20258;-35
2022/03/17 07:59:29;;;;;;;123.53;81.37;;;;;;;;;;5005819;28;20182;-36
2022/03/17 08:01:55;;;;;;;122.63;79.23;;;;;;;;;;5008983;28;20188;-36
2022/03/17 08:04:21;;;;;;;126.47;79.37;;;;;;;;;;5014685;28;20851;-35
2022/03/17 08:06:47;;;;;;;125.27;79.27;;;;;;;;;;5007757;28;20168;-35
2022/03/17 08:09:13;;;;;;;126.17;77.80;;;;;;;;;;5008433;28;20489;-35
2022/03/17 08:11:39;;;;;;;124.90;77.20;;;;;;;;;;5010054;28;20196;-35
2022/03/17 08:14:05;;;;;;;120.27;77.27;;;;;;;;;;5010029;28;20646;-36
2022/03/17 08:16:31;;;;;;;127.87;77.63;;;;;;;;;;5003312;28;20684;-35
2022/03/17 08:18:57;;;;;;;128.30;77.67;;;;;;;;;;5011169;28;20254;-35
2022/03/17 08:21:23;;;;;;;128.47;80.00;;;;;;;;;;5009360;28;20180;-35
2022/03/17 08:23:49;;;;;;;126.63;80.50;;;;;;;;;;5004711;28;21143;-36
2022/03/17 08:26:16;;;;;;;116.07;76.63;;;;;;;;;;5001705;28;20172;-35
2022/03/17 08:28:42;;;;;;;125.40;75.80;;;;;;;;;;5006885;28;20598;-35
2022/03/17 08:31:08;;;;;;;121.57;77.53;;;;;;;;;;5008691;28;20171;-35
2022/03/17 08:33:34;;;;;;;125.00;80.00;;;;;;;;;;5006809;28;20191;-35
2022/03/17 08:36:00;;;;;;;129.47;81.77;;;;;;;;;;5006366;28;20305;-35
2022/03/17 08:38:26;;;;;;;127.00;78.43;;;;;;;;;;5007346;28;20175;-35
2022/03/17 08:40:52;;;;;;;118.47;77.50;;;;;;;;;;5008807;28;20176;-35
2022/03/17 08:43:19;;;;;;;122.33;79.47;;;;;;;;;;5007787;28;20558;-35
2022/03/17 08:51:14;;;;;;;116.73;73.77;;;;;;;;;;5003458;28;20180;-35
2022/03/17 08:53:40;;;;;;;115.50;73.97;;;;;;;;;;5010647;28;20985;-35
2022/03/17 08:56:07;;;;;;;123.90;78.63;;;;;;;;;;5004688;28;20540;-35
2022/03/17 08:58:35;;;;;;;124.47;78.73;;;;;;;;;;4996180;28;20184;-35
2022/03/17 09:01:01;;;;;;;117.47;77.67;;;;;;;;;;5009023;28;20338;-35
2022/03/17 09:03:30;;;;;;;117.03;74.57;;;;;;;;;;5010064;28;20462;-35
2022/03/17 09:05:58;;;;;;;124.20;78.27;;;;;;;;;;5011637;28;20643;-36
2022/03/17 09:08:25;;;;;;;116.37;74.50;;;;;;;;;;5010082;28;20271;-35
2022/03/17 09:10:51;;;;;;;122.17;79.27;;;;;;;;;;5009253;28;20909;-36
2022/03/17 09:13:17;;;;;;;121.87;79.60;;;;;;;;;;5007783;28;20204;-35
2022/03/17 09:15:43;;;;;;;115.50;73.00;;;;;;;;;;5007238;28;20183;-35
2022/03/17 09:18:12;;;;;;;113.10;73.73;;;;;;;;;;5013210;28;20743;-35
2022/03/17 09:20:39;;;;;;;111.97;73.10;;;;;;;;;;5012979;28;20168;-35
2022/03/17 09:23:05;;;;;;;122.30;74.97;;;;;;;;;;5010742;28;20208;-35
2022/03/17 09:25:34;;;;;;;114.17;74.00;;;;;;;;;;5005163;28;20581;-36
2022/03/17 09:28:00;;;;;;;111.70;74.57;;;;;;;;;;5011363;28;20611;-35
2022/03/17 09:30:26;;;;;;;118.77;75.73;;;;;;;;;;5009658;28;20829;-35
2022/03/17 09:32:54;;;;;;;115.63;75.77;;;;;;;;;;4999076;28;20318;-35
2022/03/17 09:35:21;;;;;;;117.50;73.17;;;;;;;;;;5006538;28;20204;-35
2022/03/17 09:37:47;;;;;;;111.53;73.30;;;;;;;;;;5008770;28;20230;-35
2022/03/17 09:40:13;;;;;;;106.00;71.57;;;;;;;;;;5004350;28;20172;-35
2022/03/17 09:42:40;;;;;;;109.00;72.33;;;;;;;;;;5007938;28;20605;-36
2022/03/17 09:45:07;;;;;;;105.93;71.77;;;;;;;;;;5006044;28;20358;-35
2022/03/17 09:47:35;;;;;;;111.17;72.90;;;;;;;;;;5009569;28;20313;-35
2022/03/17 09:50:02;;;;;;;108.93;70.00;;;;;;;;;;5007450;28;20268;-35
2022/03/17 09:52:31;;;;;;;114.43;72.03;;;;;;;;;;5006455;28;20553;-35
2022/03/17 09:54:57;;;;;;;106.33;69.30;;;;;;;;;;5005291;28;20178;-35
2022/03/17 09:57:23;;;;;;;109.53;71.80;;;;;;;;;;5008215;28;20879;-36
2022/03/17 09:59:53;;;;;;;103.23;69.77;;;;;;;;;;5006555;28;20407;-35
2022/03/17 10:02:20;;;;;;;107.87;68.67;;;;;;;;;;5009477;28;20186;-35
2022/03/17 10:04:47;;;;;;;111.80;73.97;;;;;;;;;;5011603;28;20283;-36
2022/03/17 10:07:14;;;;;;;115.67;74.20;;;;;;;;;;5008601;28;20172;-35
2022/03/17 10:09:42;;;;;;;120.33;77.07;;;;;;;;;;5005479;28;20269;-35
2022/03/17 10:12:10;;;;;;;120.20;77.57;;;;;;;;;;5003806;28;21085;-35
2022/03/17 10:14:40;;;;;;;114.83;74.47;;;;;;;;;;5003782;28;20615;-35
2022/03/17 10:17:07;;;;;;;115.03;75.03;;;;;;;;;;5009639;28;20177;-36
2022/03/17 10:19:34;;;;;;;107.07;71.03;;;;;;;;;;5005537;28;20829;-35
2022/03/17 10:22:13;;;;;;;107.73;71.13;;;;;;;;;;5011591;28;20818;-35
2022/03/17 10:24:52;;;;;;;105.43;71.40;;;;;;;;;;4998640;28;20723;-35
2022/03/17 10:27:36;;;;;;;116.93;73.03;;;;;;;;;;4996762;28;20448;-35
2022/03/17 10:30:06;;;;;;;114.47;75.47;;;;;;;;;;5009525;28;20241;-35
2022/03/17 10:32:32;;;;;;;111.43;70.97;;;;;;;;;;5001141;28;20531;-35
2022/03/17 10:34:58;;;;;;;100.53;67.30;;;;;;;;;;5004180;28;20203;-35
2022/03/17 10:37:25;;;;;;;104.97;66.73;;;;;;;;;;5007610;28;20705;-35
2022/03/17 10:39:51;;;;;;;113.90;70.93;;;;;;;;;;5005811;28;20508;-35
2022/03/17 10:42:17;;;;;;;108.27;70.83;;;;;;;;;;5009870;28;20183;-35
2022/03/17 10:44:51;;;;;;;106.70;69.93;;;;;;;;;;5011998;28;20257;-35
2022/03/17 10:47:27;;;;;;;103.17;69.07;;;;;;;;;;5007709;28;20180;-35
2022/03/17 10:50:14;;;;;;;100.83;66.03;;;;;;;;;;5004250;28;20191;-36
2022/03/17 10:52:47;;;;;;;95.53;61.57;;;;;;;;;;5003192;28;20691;-35
2022/03/17 10:55:13;;;;;;;91.73;60.63;;;;;;;;;;5007321;28;20175;-35
2022/03/17 10:57:39;;;;;;;94.77;61.97;;;;;;;;;;5006785;28;20704;-35
2022/03/17 11:00:09;;;;;;;92.87;64.00;;;;;;;;;;5003875;28;20520;-35
2022/03/17 11:02:37;;;;;;;94.33;63.77;;;;;;;;;;5008122;28;20179;-35
2022/03/17 11:05:06;;;;;;;99.73;66.33;;;;;;;;;;5009291;28;20176;-36
2022/03/17 11:07:32;;;;;;;98.40;66.53;;;;;;;;;;4999883;28;20183;-35
2022/03/17 11:10:05;;;;;;;90.50;60.87;;;;;;;;;;4996715;28;20473;-35
2022/03/17 11:12:31;;;;;;;91.03;62.00;;;;;;;;;;4998439;28;20600;-35
2022/03/17 11:14:57;;;;;;;92.40;60.43;;;;;;;;;;5004834;28;20304;-35
2022/03/17 11:17:26;;;;;;;91.67;60.97;;;;;;;;;;5004705;28;20199;-35
2022/03/17 11:19:53;;;;;;;92.30;61.13;;;;;;;;;;5004972;28;20469;-36
2022/03/17 11:22:22;;;;;;;91.63;59.63;;;;;;;;;;5008054;28;20200;-35
2022/03/17 11:25:08;;;;;;;76.80;52.33;;;;;;;;;;5006426;28;20858;-36
2022/03/17 11:27:45;;;;;;;83.13;56.20;;;;;;;;;;4999348;28;20180;-35
2022/03/17 11:30:14;;;;;;;86.57;59.13;;;;;;;;;;5004107;28;20172;-35
2022/03/17 11:32:54;;;;;;;81.40;57.03;;;;;;;;;;5002228;28;20207;-35
2022/03/17 11:35:21;;;;;;;84.37;57.13;;;;;;;;;;5005217;28;20619;-36
2022/03/17 11:37:47;;;;;;;85.37;56.80;;;;;;;;;;5009696;28;20713;-35
2022/03/17 11:40:15;;;;;;;84.20;55.07;;;;;;;;;;5005378;28;20179;-35
2022/03/17 11:42:52;;;;;;;84.73;56.57;;;;;;;;;;5009542;28;20273;-35
2022/03/17 11:45:19;;;;;;;83.23;55.40;;;;;;;;;;5007447;28;20612;-35
2022/03/17 11:48:08;;;;;;;77.97;54.57;;;;;;;;;;5008884;28;20176;-35
2022/03/17 11:50:36;;;;;;;83.43;55.20;;;;;;;;;;5010741;28;20282;-35
2022/03/17 11:53:02;;;;;;;82.13;55.43;;;;;;;;;;5008321;28;20216;-35
2022/03/17 11:55:31;;;;;;;80.10;54.40;;;;;;;;;;5007771;28;20197;-35
2022/03/17 11:58:21;;;;;;;80.93;54.40;;;;;;;;;;5006685;28;20168;-35
2022/03/17 12:00:47;;;;;;;84.23;56.87;;;;;;;;;;4999584;28;20854;-35
2022/03/17 12:03:14;;;;;;;79.10;53.43;;;;;;;;;;5002846;28;20176;-35
2022/03/17 12:05:44;;;;;;;74.17;52.23;;;;;;;;;;5007604;28;20397;-34
2022/03/17 12:08:16;;;;;;;77.73;53.17;;;;;;;;;;4998692;28;20619;-35
2022/03/17 12:11:01;;;;;;;76.67;50.90;;;;;;;;;;5004113;28;20798;-35
2022/03/17 12:13:27;;;;;;;79.70;51.73;;;;;;;;;;5004845;28;20508;-35
2022/03/17 12:15:56;;;;;;;73.17;51.27;;;;;;;;;;5009163;28;20176;-35
2022/03/17 12:18:22;;;;;;;75.33;51.23;;;;;;;;;;5005746;28;20450;-35
2022/03/17 12:20:52;;;;;;;69.53;47.33;;;;;;;;;;5004264;28;20168;-35
2022/03/17 12:23:37;;;;;;;63.23;45.67;;;;;;;;;;5007475;28;20203;-34
2022/03/17 12:26:04;;;;;;;69.20;49.07;;;;;;;;;;5007770;28;20180;-35
2022/03/17 12:28:31;;;;;;;66.40;45.77;;;;;;;;;;5010935;28;20401;-35
2022/03/17 12:30:57;;;;;;;60.50;42.70;;;;;;;;;;5006756;28;20187;-35
2022/03/17 12:33:24;;;;;;;62.37;43.07;;;;;;;;;;5005271;28;20937;-34
2022/03/17 12:36:03;;;;;;;60.43;44.50;;;;;;;;;;5002606;28;20291;-35
2022/03/17 12:38:29;;;;;;;58.77;40.73;;;;;;;;;;5011642;28;20397;-35
2022/03/17 12:40:56;;;;;;;53.83;40.23;;;;;;;;;;5010079;28;20623;-35
2022/03/17 12:43:23;;;;;;;53.73;39.23;;;;;;;;;;5013171;28;20288;-35
2022/03/17 12:45:51;;;;;;;59.83;41.73;;;;;;;;;;5012252;28;20172;-35
2022/03/17 12:48:17;;;;;;;56.53;40.07;;;;;;;;;;5003530;28;20180;-35
2022/03/17 12:50:44;;;;;;;56.27;40.50;;;;;;;;;;5011594;28;20172;-35
2022/03/17 12:53:10;;;;;;;58.50;41.60;;;;;;;;;;5012835;28;20200;-35
2022/03/17 12:55:36;;;;;;;59.20;41.07;;;;;;;;;;5007047;28;20597;-34
2022/03/17 12:58:04;;;;;;;58.30;41.63;;;;;;;;;;5009838;28;20619;-35
2022/03/17 13:00:30;;;;;;;52.60;38.53;;;;;;;;;;5004340;28;20176;-35
2022/03/17 13:02:57;;;;;;;57.57;41.47;;;;;;;;;;5006094;28;20672;-35
2022/03/17 13:08:09;;;;;;;54.97;39.00;;;;;;;;;;4997173;28;20214;-35
2022/03/17 13:16:06;;;;;;;56.87;37.60;;;;;;;;;;5008103;28;20712;-35
2022/03/17 13:18:44;;;;;;;53.53;38.33;;;;;;;;;;5011769;28;20204;-35
2022/03/17 13:21:15;;;;;;;52.23;37.77;;;;;;;;;;5007839;28;20176;-35
2022/03/17 13:23:41;;;;;;;53.67;37.17;;;;;;;;;;5005397;28;20822;-35
2022/03/17 13:26:07;;;;;;;50.87;37.23;;;;;;;;;;5006171;28;20181;-35
2022/03/17 13:28:34;;;;;;;52.50;37.83;;;;;;;;;;5011873;28;21044;-35
2022/03/17 13:31:00;;;;;;;54.17;38.00;;;;;;;;;;5008663;28;20204;-35
2022/03/17 13:33:30;;;;;;;52.00;36.37;;;;;;;;;;5008309;28;20214;-35
2022/03/17 13:35:56;;;;;;;48.40;35.57;;;;;;;;;;5006597;28;20486;-35
2022/03/17 13:38:30;;;;;;;51.60;38.30;;;;;;;;;;5013157;28;20766;-35
2022/03/17 13:40:57;;;;;;;57.90;37.73;;;;;;;;;;5010436;28;20947;-35
2022/03/17 13:43:34;;;;;;;53.03;38.20;;;;;;;;;;5005161;28;20259;-35
2022/03/17 13:46:01;;;;;;;50.77;37.93;;;;;;;;;;5009495;28;20218;-35
2022/03/17 13:48:28;;;;;;;57.87;40.13;;;;;;;;;;5002364;28;20767;-35
2022/03/17 13:50:54;;;;;;;59.83;41.43;;;;;;;;;;5008579;28;20176;-35
2022/03/17 13:53:26;;;;;;;55.50;40.60;;;;;;;;;;5009262;28;20204;-35
2022/03/17 13:55:59;;;;;;;57.77;42.03;;;;;;;;;;5010067;28;20819;-35
2022/03/17 13:58:27;;;;;;;57.00;41.33;;;;;;;;;;5005934;28;20165;-35
2022/03/17 14:00:54;;;;;;;58.27;41.97;;;;;;;;;;5006198;28;21177;-35
2022/03/17 14:03:22;;;;;;;57.70;43.17;;;;;;;;;;5009642;28;20823;-35
2022/03/17 14:06:07;;;;;;;62.03;43.53;;;;;;;;;;5005120;28;20184;-35
2022/03/17 14:08:35;;;;;;;65.90;44.97;;;;;;;;;;5004685;28;20286;-35
2022/03/17 14:11:02;;;;;;;62.57;43.03;;;;;;;;;;5005432;28;20512;-35
2022/03/17 14:13:30;;;;;;;62.27;45.23;;;;;;;;;;5007225;28;20191;-35
2022/03/17 14:15:56;;;;;;;59.43;44.47;;;;;;;;;;5011233;28;20205;-35
2022/03/17 14:18:23;;;;;;;61.23;44.50;;;;;;;;;;5007736;28;20180;-35
2022/03/17 14:20:49;;;;;;;60.50;43.10;;;;;;;;;;5005714;28;20180;-34
2022/03/17 14:26:00;;;;;;;58.20;43.90;;;;;;;;;;5009458;28;20270;-34
2022/03/17 14:28:26;;;;;;;64.40;44.37;;;;;;;;;;5008191;28;20283;-34
2022/03/17 14:30:52;;;;;;;66.33;45.47;;;;;;;;;;5007768;28;20358;-34
2022/03/17 14:33:18;;;;;;;66.00;46.07;;;;;;;;;;5008964;28;20203;-34
2022/03/17 14:35:45;;;;;;;63.40;45.43;;;;;;;;;;5008465;28;20176;-35